Neffsville, Pennsylvania
Current Conditions -  °F | °C
As of 10:53 PM on Monday 20 Oct 2014 (Local Time) from KLNS Reporting Station
Light Rain Light Rain  
Wind Chill: 56°   Ceiling: 6000
Heat Index: 56°   Visibility: 10mi
Dew Point: 48°   Wind: 10mph
Humidity: 75%   Direction: 200°SSW
Pressure: 29.95"   Gusts: NA
Location:  40.0734°N, 76.3168°W
Report Text: KLNS 210253Z 20009KT 10SM -RA OVC060 13/09 A2995 RMK AO2 RAB16 SLP143 P0000 60000 T01330089 53001
Loading
Personal Weather Stations






























Interactive Weather Map
Tropical Storm Tracking
New forecast layout! Learn more

10-Day Weather Forecast

Advertisements
Track Severe Weather on mobile